createdAt,value
2022-11-16T00:00:48.927Z,4.41
2022-11-16T00:01:52.762Z,4.42
2022-11-16T00:02:56.153Z,4.44
2022-11-16T00:04:01.984Z,4.44
2022-11-16T00:05:05.810Z,4.46
2022-11-16T00:06:10.675Z,4.47
2022-11-16T00:07:14.054Z,4.37
2022-11-16T00:08:17.442Z,4.49
2022-11-16T00:09:23.353Z,4.48
2022-11-16T00:10:26.649Z,4.48
2022-11-16T00:11:29.864Z,4.49
2022-11-16T00:12:33.332Z,4.50
2022-11-16T00:13:38.211Z,4.50
2022-11-16T00:14:41.548Z,4.51
2022-11-16T00:15:54.488Z,4.52
2022-11-16T00:16:58.293Z,4.52
2022-11-16T00:18:01.518Z,4.52
2022-11-16T00:19:06.580Z,4.53
2022-11-16T00:20:10.675Z,4.52
2022-11-16T00:21:14.756Z,4.53
2022-11-16T00:22:18.142Z,4.54
2022-11-16T00:23:21.485Z,4.56
2022-11-16T00:24:24.928Z,4.57
2022-11-16T00:25:28.136Z,4.55
2022-11-16T00:26:31.666Z,4.56
2022-11-16T00:27:38.156Z,4.53
2022-11-16T00:28:41.820Z,4.55
2022-11-16T00:29:45.248Z,4.54
2022-11-16T00:30:57.439Z,4.56
2022-11-16T00:32:03.695Z,4.56
2022-11-16T00:33:08.156Z,4.57
2022-11-16T00:34:12.187Z,4.56
2022-11-16T00:35:15.527Z,4.58
2022-11-16T00:36:19.227Z,4.59
2022-11-16T00:37:23.240Z,4.59
2022-11-16T00:38:26.492Z,4.59
2022-11-16T00:39:29.966Z,4.55
2022-11-16T00:40:33.772Z,4.47
2022-11-16T00:41:40.610Z,4.45
2022-11-16T00:42:44.026Z,4.43
2022-11-16T00:43:47.369Z,4.40
2022-11-16T00:44:50.836Z,4.34
2022-11-16T00:45:54.487Z,4.30
2022-11-16T00:46:58.454Z,4.29
2022-11-16T00:48:01.746Z,4.30
2022-11-16T00:49:08.598Z,4.32
2022-11-16T00:50:12.031Z,4.35
2022-11-16T00:51:15.868Z,4.38
2022-11-16T00:52:19.034Z,4.39
2022-11-16T00:53:22.830Z,4.38
2022-11-16T00:54:26.835Z,4.38
2022-11-16T00:55:30.710Z,4.37
2022-11-16T00:56:34.671Z,4.33
2022-11-16T00:57:38.141Z,4.33
2022-11-16T00:58:41.616Z,4.33
2022-11-16T00:59:46.507Z,4.33
2022-11-16T01:00:50.647Z,4.32
2022-11-16T01:01:53.989Z,4.32
2022-11-16T01:02:57.275Z,4.31
2022-11-16T01:04:01.406Z,4.30
2022-11-16T01:05:05.109Z,4.30
2022-11-16T01:06:12.535Z,4.26
2022-11-16T01:07:23.814Z,4.34
2022-11-16T01:08:41.324Z,4.37
2022-11-16T01:09:58.151Z,4.39
2022-11-16T01:11:22.499Z,4.40
2022-11-16T01:12:26.142Z,4.41
2022-11-16T01:13:30.100Z,4.44
2022-11-16T01:14:38.716Z,4.44
2022-11-16T01:15:48.492Z,4.45
2022-11-16T01:16:51.976Z,4.42
2022-11-16T01:18:02.332Z,4.40
2022-11-16T01:19:10.091Z,4.38
2022-11-16T01:20:18.458Z,4.36
2022-11-16T01:21:23.700Z,4.34
2022-11-16T01:22:27.130Z,4.27
2022-11-16T01:23:30.674Z,4.24
2022-11-16T01:24:34.143Z,4.21
2022-11-16T01:25:37.409Z,4.22
2022-11-16T01:26:40.884Z,4.24
2022-11-16T01:27:44.565Z,4.24
2022-11-16T01:28:54.068Z,4.26
2022-11-16T01:29:57.649Z,4.28
2022-11-16T01:31:01.181Z,4.29
2022-11-16T01:32:06.597Z,4.31
2022-11-16T01:33:10.985Z,4.27
2022-11-16T01:34:16.044Z,4.25
2022-11-16T01:35:19.522Z,4.23
2022-11-16T01:36:23.694Z,4.21
2022-11-16T01:37:27.727Z,4.20
2022-11-16T01:38:34.293Z,4.18
2022-11-16T01:39:39.843Z,4.16
2022-11-16T01:40:47.032Z,4.17
2022-11-16T01:41:53.184Z,4.18
2022-11-16T01:42:56.658Z,4.21
2022-11-16T01:44:06.759Z,4.24
2022-11-16T01:45:23.468Z,4.27
2022-11-16T01:46:30.959Z,4.29
2022-11-16T01:47:34.799Z,4.31
2022-11-16T01:48:38.691Z,4.34
2022-11-16T01:49:46.550Z,4.37
2022-11-16T01:50:57.312Z,4.38
2022-11-16T01:52:08.450Z,4.40
2022-11-16T01:53:14.704Z,4.40
2022-11-16T01:54:31.292Z,4.41
2022-11-16T01:55:37.886Z,4.41
2022-11-16T01:56:48.203Z,4.40
2022-11-16T01:58:12.417Z,4.38
2022-11-16T01:59:30.164Z,4.39
2022-11-16T02:00:35.244Z,4.36
2022-11-16T02:01:49.795Z,4.38
2022-11-16T02:02:54.905Z,4.39
2022-11-16T02:04:21.715Z,4.39
2022-11-16T02:05:39.326Z,4.39
2022-11-16T02:06:57.662Z,4.40
2022-11-16T02:08:41.895Z,4.39
2022-11-16T02:10:01.450Z,4.39
2022-11-16T02:11:40.567Z,4.40
2022-11-16T02:12:56.426Z,4.40
2022-11-16T02:14:21.684Z,4.39
2022-11-16T02:15:37.157Z,4.40
2022-11-16T02:17:27.847Z,4.39
2022-11-16T02:18:31.544Z,4.36
2022-11-16T02:20:44.612Z,4.40
2022-11-16T02:22:10.860Z,4.37
2022-11-16T02:23:36.375Z,4.39
2022-11-16T02:24:50.740Z,4.39
2022-11-16T02:26:15.434Z,4.37
2022-11-16T02:27:47.979Z,4.37
2022-11-16T02:29:29.537Z,4.39
2022-11-16T02:30:33.755Z,4.40
2022-11-16T02:31:42.521Z,4.43
2022-11-16T02:33:09.245Z,4.44
2022-11-16T02:34:16.850Z,4.45
2022-11-16T02:35:24.704Z,4.45
2022-11-16T02:36:32.577Z,4.44
2022-11-16T02:37:41.216Z,4.48
2022-11-16T02:38:55.506Z,4.48
2022-11-16T02:40:02.766Z,4.48
2022-11-16T02:41:10.953Z,4.47
2022-11-16T02:42:30.573Z,4.48
2022-11-16T02:43:40.724Z,4.48
2022-11-16T02:44:48.579Z,4.49
2022-11-16T02:45:55.929Z,4.48
2022-11-16T02:47:05.163Z,4.48
2022-11-16T02:48:24.362Z,4.47
2022-11-16T02:49:31.269Z,4.45
2022-11-16T02:50:37.236Z,4.43
2022-11-16T02:51:41.911Z,4.42
2022-11-16T02:52:45.596Z,4.43
2022-11-16T02:54:15.206Z,4.43
2022-11-16T02:55:21.306Z,4.44
2022-11-16T02:56:25.830Z,4.44
2022-11-16T02:57:38.630Z,4.43
2022-11-16T02:58:42.545Z,4.41
2022-11-16T02:59:53.114Z,4.40
2022-11-16T03:01:22.829Z,4.38
2022-11-16T03:02:40.133Z,4.40
2022-11-16T03:03:59.169Z,4.40
2022-11-16T03:05:46.432Z,4.40
2022-11-16T03:06:51.603Z,4.41
2022-11-16T03:08:23.587Z,4.41
2022-11-16T03:09:42.466Z,4.37
2022-11-16T03:11:11.797Z,4.34
2022-11-16T03:12:20.569Z,4.32
2022-11-16T03:13:28.136Z,4.31
2022-11-16T03:14:36.803Z,4.31
2022-11-16T03:15:42.305Z,4.31
2022-11-16T03:16:51.080Z,4.31
2022-11-16T03:17:57.638Z,4.32
2022-11-16T03:19:05.743Z,4.32
2022-11-16T03:20:14.084Z,4.35
2022-11-16T03:21:33.363Z,4.36
2022-11-16T03:22:44.564Z,4.36
2022-11-16T03:23:48.234Z,4.36
2022-11-16T03:24:51.587Z,4.39
2022-11-16T03:25:57.540Z,4.39
2022-11-16T03:27:10.015Z,4.39
2022-11-16T03:28:36.181Z,4.39
2022-11-16T03:29:51.930Z,4.39
2022-11-16T03:31:01.219Z,4.38
2022-11-16T03:32:16.765Z,4.37
2022-11-16T03:33:29.919Z,4.37
2022-11-16T03:34:37.994Z,4.35
2022-11-16T03:35:59.309Z,4.34
2022-11-16T03:37:04.351Z,4.33
2022-11-16T03:38:10.476Z,4.32
2022-11-16T03:39:24.215Z,4.31
2022-11-16T03:40:32.252Z,4.30
2022-11-16T03:41:40.294Z,4.29
2022-11-16T03:42:45.449Z,4.28
2022-11-16T03:43:53.560Z,4.23
2022-11-16T03:44:57.952Z,4.20
2022-11-16T03:46:35.958Z,4.19
2022-11-16T03:47:41.562Z,4.16
2022-11-16T03:48:45.016Z,4.14
2022-11-16T03:49:57.778Z,4.14
2022-11-16T03:51:01.380Z,4.13
2022-11-16T03:52:05.634Z,4.16
2022-11-16T03:53:11.689Z,4.16
2022-11-16T03:54:15.256Z,4.16
2022-11-16T03:55:19.331Z,4.19
2022-11-16T03:56:22.776Z,4.20
2022-11-16T03:57:26.643Z,4.20
2022-11-16T03:58:33.010Z,4.21
2022-11-16T03:59:36.729Z,4.22
2022-11-16T04:00:42.122Z,4.24
2022-11-16T04:01:46.267Z,4.25
2022-11-16T04:02:50.050Z,4.25
2022-11-16T04:03:56.345Z,4.25
2022-11-16T04:05:19.438Z,4.25
2022-11-16T04:06:41.503Z,4.24
2022-11-16T04:08:03.724Z,4.25
2022-11-16T04:09:28.358Z,4.25
2022-11-16T04:10:50.645Z,4.26
2022-11-16T04:12:13.351Z,4.25
2022-11-16T04:13:45.039Z,4.25
2022-11-16T04:15:10.145Z,4.24
2022-11-16T04:16:32.148Z,4.24
2022-11-16T04:17:54.349Z,4.24
2022-11-16T04:19:16.480Z,4.23
2022-11-16T04:20:38.528Z,4.25
2022-11-16T04:22:06.031Z,4.25
2022-11-16T04:23:34.343Z,4.24
2022-11-16T04:24:42.278Z,4.23
2022-11-16T04:25:47.490Z,4.22
2022-11-16T04:27:19.846Z,4.20
2022-11-16T04:28:27.535Z,4.19
2022-11-16T04:29:33.999Z,4.19
2022-11-16T04:30:56.046Z,4.15
2022-11-16T04:32:18.705Z,4.16
2022-11-16T04:33:40.934Z,4.14
2022-11-16T04:35:03.256Z,4.07
2022-11-16T04:36:25.636Z,4.02
2022-11-16T04:37:47.684Z,3.94
2022-11-16T04:38:51.722Z,3.84
2022-11-16T04:39:55.083Z,3.79
2022-11-16T04:40:58.286Z,3.79
2022-11-16T04:42:17.638Z,3.81
2022-11-16T04:43:22.499Z,3.83
2022-11-16T04:44:45.719Z,3.85
2022-11-16T04:46:09.750Z,3.89
2022-11-16T04:47:15.682Z,3.90
2022-11-16T04:48:20.258Z,3.89
2022-11-16T04:49:24.419Z,3.88
2022-11-16T04:50:28.131Z,3.88
2022-11-16T04:51:31.803Z,3.91
2022-11-16T04:52:35.208Z,3.93
2022-11-16T04:53:38.975Z,3.92
2022-11-16T04:54:51.854Z,3.93
2022-11-16T04:55:59.570Z,3.94
2022-11-16T04:57:04.484Z,3.96
2022-11-16T04:58:08.427Z,3.97
2022-11-16T04:59:12.126Z,3.99
2022-11-16T05:00:16.185Z,3.98
2022-11-16T05:01:40.229Z,3.97
2022-11-16T05:02:43.619Z,3.92
2022-11-16T05:03:47.447Z,3.90
2022-11-16T05:04:50.830Z,3.85
2022-11-16T05:05:54.304Z,3.79
2022-11-16T05:06:57.797Z,3.72
2022-11-16T05:08:01.333Z,3.62
2022-11-16T05:09:06.119Z,3.59
2022-11-16T05:10:10.448Z,3.58
2022-11-16T05:11:14.040Z,3.59
2022-11-16T05:12:20.905Z,3.60
2022-11-16T05:13:25.646Z,3.63
2022-11-16T05:14:28.950Z,3.65
2022-11-16T05:15:32.502Z,3.68
2022-11-16T05:16:36.470Z,3.61
2022-11-16T05:17:40.135Z,3.62
2022-11-16T05:19:08.268Z,3.61
2022-11-16T05:20:30.691Z,3.60
2022-11-16T05:21:39.504Z,3.60
2022-11-16T05:22:42.963Z,3.62
2022-11-16T05:24:21.800Z,3.64
2022-11-16T05:25:25.320Z,3.65
2022-11-16T05:26:28.843Z,3.65
2022-11-16T05:27:32.788Z,3.65
2022-11-16T05:28:36.381Z,3.66
2022-11-16T05:29:40.626Z,3.65
2022-11-16T05:30:46.184Z,3.66
2022-11-16T05:31:50.557Z,3.65
2022-11-16T05:32:54.859Z,3.65
2022-11-16T05:33:58.787Z,3.67
2022-11-16T05:35:02.120Z,3.66
2022-11-16T05:36:06.019Z,3.64
2022-11-16T05:37:09.818Z,3.65
2022-11-16T05:38:13.154Z,3.65
2022-11-16T05:39:19.634Z,3.67
2022-11-16T05:40:26.386Z,3.66
2022-11-16T05:41:33.926Z,3.64
2022-11-16T05:42:37.286Z,3.64
2022-11-16T05:43:40.920Z,3.65
2022-11-16T05:44:53.841Z,3.62
2022-11-16T05:45:59.351Z,3.60
2022-11-16T05:47:03.385Z,3.61
2022-11-16T05:48:07.164Z,3.50
2022-11-16T05:49:12.102Z,3.61
2022-11-16T05:50:16.561Z,3.62
2022-11-16T05:51:22.881Z,3.62
2022-11-16T05:52:26.331Z,3.61
2022-11-16T05:53:29.716Z,3.62
2022-11-16T05:54:36.188Z,3.50
2022-11-16T05:55:39.538Z,3.55
2022-11-16T05:56:43.434Z,3.45
2022-11-16T05:57:46.693Z,3.49
2022-11-16T05:58:52.829Z,3.57
2022-11-16T05:59:56.583Z,3.58
2022-11-16T06:01:00.040Z,3.59
2022-11-16T06:02:07.093Z,3.60
2022-11-16T06:03:11.197Z,3.61
2022-11-16T06:04:15.195Z,3.59
2022-11-16T06:05:18.879Z,3.58
2022-11-16T06:06:22.792Z,3.58
2022-11-16T06:07:26.279Z,3.57
2022-11-16T06:08:33.062Z,3.60
2022-11-16T06:09:37.743Z,3.60
2022-11-16T06:10:48.856Z,3.58
2022-11-16T06:11:52.311Z,3.57
2022-11-16T06:12:56.391Z,3.57
2022-11-16T06:14:00.485Z,3.58
2022-11-16T06:15:04.610Z,3.59
2022-11-16T06:16:08.190Z,3.58
2022-11-16T06:17:14.678Z,3.60
2022-11-16T06:18:18.206Z,3.57
2022-11-16T06:19:27.026Z,3.51
2022-11-16T06:20:37.486Z,3.50
2022-11-16T06:21:40.925Z,3.52
2022-11-16T06:22:48.932Z,3.52
2022-11-16T06:23:52.826Z,3.52
2022-11-16T06:24:56.107Z,3.53
2022-11-16T06:26:00.032Z,3.52
2022-11-16T06:27:06.864Z,3.49
2022-11-16T06:28:10.822Z,3.49
2022-11-16T06:29:14.669Z,3.42
2022-11-16T06:30:18.845Z,3.29
2022-11-16T06:31:22.750Z,3.24
2022-11-16T06:32:26.112Z,3.24
2022-11-16T06:33:33.372Z,3.25
2022-11-16T06:34:37.381Z,3.20
2022-11-16T06:35:40.740Z,3.16
2022-11-16T06:36:44.419Z,3.15
2022-11-16T06:37:48.046Z,3.16
2022-11-16T06:38:51.480Z,3.09
2022-11-16T06:39:55.332Z,3.17
2022-11-16T06:40:59.450Z,3.14
2022-11-16T06:42:04.132Z,3.08
2022-11-16T06:43:07.566Z,3.06
2022-11-16T06:44:11.056Z,3.09
2022-11-16T06:45:17.694Z,3.13
2022-11-16T06:46:25.216Z,3.16
2022-11-16T06:47:29.497Z,3.23
2022-11-16T06:48:34.330Z,3.28
2022-11-16T06:49:39.407Z,3.30
2022-11-16T06:50:49.747Z,3.30
2022-11-16T06:51:54.711Z,3.27
2022-11-16T06:53:01.006Z,3.27
2022-11-16T06:54:05.052Z,3.15
2022-11-16T06:55:08.727Z,3.11
2022-11-16T06:56:14.609Z,3.08
2022-11-16T06:57:23.877Z,3.05
2022-11-16T06:58:29.907Z,3.09
2022-11-16T06:59:33.455Z,3.05
2022-11-16T07:00:37.416Z,3.07
2022-11-16T07:01:41.002Z,3.12
2022-11-16T07:02:47.610Z,3.19
2022-11-16T07:03:52.631Z,3.25
2022-11-16T07:05:00.591Z,3.30
2022-11-16T07:06:12.945Z,3.37
2022-11-16T07:07:17.968Z,3.40
2022-11-16T07:08:21.530Z,3.39
2022-11-16T07:09:25.615Z,3.37
2022-11-16T07:10:29.041Z,3.39
2022-11-16T07:11:35.725Z,3.42
2022-11-16T07:12:39.627Z,3.44
2022-11-16T07:13:43.127Z,3.46
2022-11-16T07:14:46.526Z,3.48
2022-11-16T07:15:49.957Z,3.52
2022-11-16T07:16:59.017Z,3.55
2022-11-16T07:18:06.489Z,3.53
2022-11-16T07:19:10.474Z,3.59
2022-11-16T07:20:14.331Z,3.61
2022-11-16T07:21:18.720Z,3.60
2022-11-16T07:22:22.096Z,3.64
2022-11-16T07:23:25.960Z,3.65
2022-11-16T07:24:29.393Z,3.68
2022-11-16T07:25:33.981Z,3.69
2022-11-16T07:26:37.883Z,3.71
2022-11-16T07:27:45.066Z,3.75
2022-11-16T07:28:48.819Z,3.76
2022-11-16T07:29:56.405Z,3.79
2022-11-16T07:31:19.565Z,3.83
2022-11-16T07:32:22.927Z,3.87
2022-11-16T07:33:45.073Z,3.91
2022-11-16T07:34:54.567Z,3.93
2022-11-16T07:36:02.876Z,3.94
2022-11-16T07:37:07.789Z,3.97
2022-11-16T07:38:15.396Z,4.03
2022-11-16T07:39:22.112Z,4.08
2022-11-16T07:40:25.589Z,4.11
2022-11-16T07:41:29.176Z,4.15
2022-11-16T07:43:01.820Z,4.15
2022-11-16T07:44:28.623Z,4.19
2022-11-16T07:45:41.070Z,4.23
2022-11-16T07:46:47.175Z,4.26
2022-11-16T07:47:54.285Z,4.28
2022-11-16T07:49:19.551Z,4.29
2022-11-16T07:50:36.630Z,4.29
2022-11-16T07:51:41.384Z,4.28
2022-11-16T07:52:57.004Z,4.27
2022-11-16T07:54:00.281Z,4.30
2022-11-16T07:55:05.842Z,4.33
2022-11-16T07:56:11.011Z,4.36
2022-11-16T07:57:19.361Z,4.38
2022-11-16T07:58:23.841Z,4.40
2022-11-16T07:59:29.103Z,4.47
2022-11-16T08:00:33.313Z,4.53
2022-11-16T08:01:41.607Z,4.59
2022-11-16T08:02:46.522Z,4.62
2022-11-16T08:03:54.427Z,4.69
2022-11-16T08:04:57.845Z,4.76
2022-11-16T08:06:08.948Z,4.82
2022-11-16T08:07:12.264Z,4.88
2022-11-16T08:08:23.251Z,4.94
2022-11-16T08:09:27.811Z,4.98
2022-11-16T08:10:31.821Z,5.05
2022-11-16T08:11:35.570Z,5.09
2022-11-16T08:12:38.983Z,5.11
2022-11-16T08:13:42.995Z,5.14
2022-11-16T08:14:46.431Z,5.17
2022-11-16T08:15:49.712Z,5.21
2022-11-16T08:16:53.101Z,5.24
2022-11-16T08:17:58.500Z,5.27
2022-11-16T08:19:03.560Z,5.30
2022-11-16T08:20:08.694Z,5.32
2022-11-16T08:21:14.599Z,5.37
2022-11-16T08:22:18.297Z,5.41
2022-11-16T08:23:21.755Z,5.41
2022-11-16T08:24:25.381Z,5.43
2022-11-16T08:25:29.326Z,5.45
2022-11-16T08:26:33.931Z,5.47
2022-11-16T08:27:41.766Z,5.43
2022-11-16T08:28:47.904Z,5.42
2022-11-16T08:29:51.516Z,5.43
2022-11-16T08:30:55.139Z,5.47
2022-11-16T08:31:59.146Z,5.45
2022-11-16T08:33:02.587Z,5.43
2022-11-16T08:34:06.068Z,5.46
2022-11-16T08:35:09.615Z,5.46
2022-11-16T08:36:17.410Z,5.48
2022-11-16T08:37:21.461Z,5.50
2022-11-16T08:38:25.265Z,5.53
2022-11-16T08:39:29.005Z,5.56
2022-11-16T08:40:35.600Z,5.59
2022-11-16T08:41:39.761Z,5.58
2022-11-16T08:42:44.073Z,5.62
2022-11-16T08:43:50.732Z,5.61
2022-11-16T08:44:54.424Z,5.51
2022-11-16T08:45:58.645Z,5.59
2022-11-16T08:47:01.890Z,5.58
2022-11-16T08:48:13.541Z,5.60
2022-11-16T08:49:17.041Z,5.63
2022-11-16T08:50:20.435Z,5.60
2022-11-16T08:51:25.677Z,5.58
2022-11-16T08:52:36.667Z,5.49
2022-11-16T08:53:43.296Z,5.57
2022-11-16T08:54:47.288Z,5.56
2022-11-16T08:55:50.802Z,5.55
2022-11-16T08:56:54.250Z,5.54
2022-11-16T08:57:57.619Z,5.55
2022-11-16T08:59:01.089Z,5.45
2022-11-16T09:00:05.659Z,5.55
2022-11-16T09:01:18.689Z,5.55
2022-11-16T09:02:25.791Z,5.57
2022-11-16T09:03:29.496Z,5.56
2022-11-16T09:04:37.008Z,5.61
2022-11-16T09:05:42.705Z,5.64
2022-11-16T09:06:46.445Z,5.62
2022-11-16T09:07:49.809Z,5.66
2022-11-16T09:08:54.165Z,5.69
2022-11-16T09:09:57.497Z,5.70
2022-11-16T09:11:04.772Z,5.72
2022-11-16T09:12:08.382Z,5.75
2022-11-16T09:13:14.811Z,5.80
2022-11-16T09:14:18.716Z,5.82
2022-11-16T09:15:25.135Z,5.80
2022-11-16T09:16:29.823Z,5.83
2022-11-16T09:17:33.190Z,5.83
2022-11-16T09:18:37.141Z,5.87
2022-11-16T09:19:40.865Z,5.83
2022-11-16T09:20:45.572Z,5.83
2022-11-16T09:21:48.812Z,5.92
2022-11-16T09:22:52.166Z,5.84
2022-11-16T09:23:57.466Z,5.84
2022-11-16T09:25:01.258Z,5.81
2022-11-16T09:26:07.336Z,5.86
2022-11-16T09:27:10.606Z,5.97
2022-11-16T09:28:15.151Z,5.89
2022-11-16T09:29:18.747Z,5.88
2022-11-16T09:30:22.430Z,5.92
2022-11-16T09:31:30.349Z,5.85
2022-11-16T09:32:36.279Z,5.86
2022-11-16T09:33:39.551Z,5.83
2022-11-16T09:34:43.012Z,5.79
2022-11-16T09:35:47.259Z,5.75
2022-11-16T09:36:50.488Z,5.77
2022-11-16T09:37:56.954Z,5.80
2022-11-16T09:39:28.721Z,5.76
2022-11-16T09:40:39.230Z,5.78
2022-11-16T09:41:45.100Z,5.79
2022-11-16T09:43:04.495Z,5.81
2022-11-16T09:44:44.109Z,5.88
2022-11-16T09:46:21.114Z,5.83
2022-11-16T09:47:38.340Z,5.82
2022-11-16T09:48:41.911Z,5.86
2022-11-16T09:50:02.886Z,5.92
2022-11-16T09:51:10.218Z,5.84
2022-11-16T09:52:37.163Z,5.74
2022-11-16T09:53:58.662Z,5.87
2022-11-16T09:55:24.714Z,5.87
2022-11-16T09:56:35.445Z,5.91
2022-11-16T09:57:38.881Z,5.90
2022-11-16T09:59:06.302Z,5.90
2022-11-16T10:00:18.198Z,5.91
2022-11-16T10:01:30.000Z,5.93
2022-11-16T10:02:40.999Z,5.96
2022-11-16T10:03:49.321Z,5.94
2022-11-16T10:05:00.695Z,5.96
2022-11-16T10:06:09.229Z,5.97
2022-11-16T10:07:17.020Z,6.00
2022-11-16T10:08:44.094Z,6.04
2022-11-16T10:09:48.043Z,6.01
2022-11-16T10:11:23.256Z,6.02
2022-11-16T10:12:31.235Z,6.02
2022-11-16T10:13:51.020Z,5.99
2022-11-16T10:15:01.715Z,6.03
2022-11-16T10:16:13.705Z,6.07
2022-11-16T10:17:38.399Z,6.06
2022-11-16T10:19:36.150Z,6.09
2022-11-16T10:21:08.343Z,6.11
2022-11-16T10:22:39.641Z,6.14
2022-11-16T10:23:42.982Z,6.19
2022-11-16T10:25:16.506Z,6.17
2022-11-16T10:26:34.687Z,6.19
2022-11-16T10:27:44.663Z,6.19
2022-11-16T10:29:05.287Z,6.22
2022-11-16T10:30:10.164Z,6.24
2022-11-16T10:31:20.057Z,6.26
2022-11-16T10:32:32.340Z,6.30
2022-11-16T10:33:38.341Z,6.33
2022-11-16T10:35:01.392Z,6.38
2022-11-16T10:36:12.384Z,6.38
2022-11-16T10:37:15.765Z,6.38
2022-11-16T10:38:33.324Z,6.37
2022-11-16T10:39:41.107Z,6.36
2022-11-16T10:40:49.824Z,6.40
2022-11-16T10:41:53.096Z,6.42
2022-11-16T10:43:21.160Z,6.45
2022-11-16T10:44:37.935Z,6.48
2022-11-16T10:45:47.489Z,6.50
2022-11-16T10:47:20.354Z,6.54
2022-11-16T10:48:39.857Z,6.47
2022-11-16T10:50:08.160Z,6.45
2022-11-16T10:51:12.194Z,6.46
2022-11-16T10:52:15.673Z,6.47
2022-11-16T10:53:33.275Z,6.48
2022-11-16T10:54:41.388Z,6.54
2022-11-16T10:56:22.050Z,6.59
2022-11-16T10:57:26.761Z,6.63
2022-11-16T10:58:53.486Z,6.61
2022-11-16T10:59:58.016Z,6.65
2022-11-16T11:01:01.484Z,6.67
2022-11-16T11:02:24.995Z,6.67
2022-11-16T11:03:31.949Z,6.68
2022-11-16T11:04:35.761Z,6.70
2022-11-16T11:05:52.831Z,6.69
2022-11-16T11:07:16.927Z,6.74
2022-11-16T11:08:31.292Z,6.70
2022-11-16T11:09:41.890Z,6.65
2022-11-16T11:10:58.723Z,6.68
2022-11-16T11:12:22.880Z,6.63
2022-11-16T11:13:27.402Z,6.58
2022-11-16T11:14:32.679Z,6.62
2022-11-16T11:15:36.827Z,6.67
2022-11-16T11:16:41.718Z,6.67
2022-11-16T11:17:47.535Z,6.67
2022-11-16T11:18:51.720Z,6.69
2022-11-16T11:20:17.742Z,6.70
2022-11-16T11:21:29.239Z,6.72
2022-11-16T11:23:01.974Z,6.75
2022-11-16T11:24:43.521Z,6.77
2022-11-16T11:25:54.391Z,6.80
2022-11-16T11:26:59.479Z,6.84
2022-11-16T11:28:29.566Z,6.87
2022-11-16T11:29:40.507Z,6.90
2022-11-16T11:30:58.325Z,6.95
2022-11-16T11:32:16.956Z,6.99
2022-11-16T11:33:27.802Z,7.03
2022-11-16T11:34:42.005Z,7.06
2022-11-16T11:35:45.668Z,7.11
2022-11-16T11:36:54.819Z,7.11
2022-11-16T11:38:07.399Z,7.15
2022-11-16T11:39:11.691Z,7.18
2022-11-16T11:40:27.511Z,7.13
2022-11-16T11:41:43.044Z,7.10
2022-11-16T11:43:21.970Z,6.97
2022-11-16T11:44:54.652Z,7.06
2022-11-16T11:46:16.562Z,7.07
2022-11-16T11:47:56.186Z,7.15
2022-11-16T11:49:04.594Z,7.13
2022-11-16T11:50:14.741Z,7.04
2022-11-16T11:51:25.755Z,7.01
2022-11-16T11:52:45.563Z,6.87
2022-11-16T11:53:59.840Z,6.77
2022-11-16T11:55:07.895Z,6.78
2022-11-16T11:56:13.066Z,6.78
2022-11-16T11:57:22.263Z,6.77
2022-11-16T11:58:32.504Z,6.78
2022-11-16T11:59:36.250Z,6.77
2022-11-16T12:01:06.771Z,6.82
2022-11-16T12:02:10.096Z,6.77
2022-11-16T12:04:11.178Z,6.74
2022-11-16T12:05:26.090Z,6.74
2022-11-16T12:06:44.159Z,6.73
2022-11-16T12:08:01.661Z,6.75
2022-11-16T12:09:24.056Z,6.69
2022-11-16T12:10:46.459Z,6.67
2022-11-16T12:12:14.781Z,6.61
2022-11-16T12:13:36.961Z,6.63
2022-11-16T12:15:03.439Z,6.64
2022-11-16T12:16:33.009Z,6.61
2022-11-16T12:18:26.367Z,6.55
2022-11-16T12:19:56.472Z,6.54
2022-11-16T12:21:18.763Z,6.50
2022-11-16T12:22:43.321Z,6.46
2022-11-16T12:23:58.948Z,6.36
2022-11-16T12:25:26.340Z,6.44
2022-11-16T12:26:48.021Z,6.45
2022-11-16T12:28:13.926Z,6.45
2022-11-16T12:29:34.968Z,6.47
2022-11-16T12:30:56.401Z,6.51
2022-11-16T12:32:41.662Z,6.47
2022-11-16T12:33:54.329Z,6.43
2022-11-16T12:35:03.600Z,6.41
2022-11-16T12:36:18.807Z,6.43
2022-11-16T12:37:50.608Z,6.41
2022-11-16T12:39:23.888Z,6.45
2022-11-16T12:40:52.739Z,6.45
2022-11-16T12:42:22.157Z,6.43
2022-11-16T12:43:46.769Z,6.42
2022-11-16T12:45:02.214Z,6.41
2022-11-16T12:46:20.074Z,6.42
2022-11-16T12:47:57.910Z,6.42
2022-11-16T12:49:25.406Z,6.38
2022-11-16T12:50:37.335Z,6.38
2022-11-16T12:51:46.172Z,6.39
2022-11-16T12:53:17.065Z,6.42
2022-11-16T12:54:52.236Z,6.37
2022-11-16T12:56:49.054Z,6.33
2022-11-16T12:58:17.401Z,6.29
2022-11-16T13:00:10.567Z,6.28
2022-11-16T13:01:35.748Z,6.29
2022-11-16T13:02:57.296Z,6.30
2022-11-16T13:04:09.973Z,6.24
2022-11-16T13:05:19.617Z,6.21
2022-11-16T13:06:48.355Z,6.17
2022-11-16T13:08:31.246Z,6.18
2022-11-16T13:09:39.387Z,6.17
2022-11-16T13:10:47.141Z,6.13
2022-11-16T13:11:58.311Z,6.13
2022-11-16T13:13:34.810Z,6.10
2022-11-16T13:14:42.352Z,6.09
2022-11-16T13:15:48.095Z,6.12
2022-11-16T13:16:52.440Z,6.14
2022-11-16T13:18:00.553Z,6.16
2022-11-16T13:19:07.032Z,6.20
2022-11-16T13:20:33.336Z,6.19
2022-11-16T13:21:36.508Z,6.20
2022-11-16T13:22:46.882Z,6.21
2022-11-16T13:24:02.871Z,6.27
2022-11-16T13:25:21.426Z,6.26
2022-11-16T13:26:38.959Z,6.20
2022-11-16T13:28:13.225Z,6.17
2022-11-16T13:29:30.452Z,6.16
2022-11-16T13:31:00.658Z,6.16
2022-11-16T13:32:14.389Z,6.16
2022-11-16T13:33:40.508Z,6.19
2022-11-16T13:34:44.647Z,6.22
2022-11-16T13:35:48.000Z,6.22
2022-11-16T13:36:51.544Z,6.24
2022-11-16T13:37:54.998Z,6.26
2022-11-16T13:38:59.921Z,6.29
2022-11-16T13:40:05.900Z,6.32
2022-11-16T13:41:31.037Z,6.35
2022-11-16T13:42:35.638Z,6.37
2022-11-16T13:43:48.857Z,6.37
2022-11-16T13:44:53.425Z,6.39
2022-11-16T13:46:00.881Z,6.42
2022-11-16T13:47:28.465Z,6.44
2022-11-16T13:48:38.019Z,6.47
2022-11-16T13:50:00.289Z,6.50
2022-11-16T13:51:16.303Z,6.48
2022-11-16T13:52:31.592Z,6.49
2022-11-16T13:55:33.921Z,6.48
2022-11-16T13:56:52.090Z,6.46
2022-11-16T13:57:57.614Z,6.46
2022-11-16T13:59:02.255Z,6.44
2022-11-16T14:00:35.486Z,6.44
2022-11-16T14:02:06.486Z,6.44
2022-11-16T14:03:16.210Z,6.42
2022-11-16T14:04:54.411Z,6.41
2022-11-16T14:05:58.265Z,6.41
2022-11-16T14:07:01.867Z,6.44
2022-11-16T14:08:20.557Z,6.46
2022-11-16T14:09:49.387Z,6.50
2022-11-16T14:10:52.607Z,6.52
2022-11-16T14:11:56.591Z,6.52
2022-11-16T14:13:01.624Z,6.50
2022-11-16T14:14:53.022Z,6.50
2022-11-16T14:16:15.388Z,6.51
2022-11-16T14:17:59.112Z,6.50
2022-11-16T14:19:05.341Z,6.49
2022-11-16T14:20:12.865Z,6.49
2022-11-16T14:21:46.705Z,6.50
2022-11-16T14:23:29.036Z,6.49
2022-11-16T14:24:47.431Z,6.45
2022-11-16T14:26:02.795Z,6.45
2022-11-16T14:27:17.040Z,6.45
2022-11-16T14:29:00.385Z,6.44
2022-11-16T14:30:03.832Z,6.42
2022-11-16T14:31:18.652Z,6.44
2022-11-16T14:32:27.503Z,6.42
2022-11-16T14:33:36.735Z,6.41
2022-11-16T14:34:43.758Z,6.45
2022-11-16T14:35:52.754Z,6.43
2022-11-16T14:36:56.235Z,6.40
2022-11-16T14:38:36.575Z,6.42
2022-11-16T14:39:43.614Z,6.36
2022-11-16T14:40:56.222Z,6.38
2022-11-16T14:42:05.508Z,6.37
2022-11-16T14:43:18.654Z,6.36
2022-11-16T14:44:28.877Z,6.34
2022-11-16T14:45:35.062Z,6.31
2022-11-16T14:46:41.958Z,6.30
2022-11-16T14:47:48.191Z,6.28
2022-11-16T14:48:53.888Z,6.26
2022-11-16T14:49:58.207Z,6.28
2022-11-16T14:51:19.914Z,6.26
2022-11-16T14:52:36.901Z,6.23
2022-11-16T14:53:48.572Z,6.20
2022-11-16T14:55:00.658Z,6.18
2022-11-16T14:56:12.013Z,6.21
2022-11-16T14:57:20.082Z,6.20
2022-11-16T14:58:24.045Z,6.12
2022-11-16T14:59:29.129Z,6.12
2022-11-16T15:00:34.657Z,6.12
2022-11-16T15:01:40.121Z,6.11
2022-11-16T15:02:51.431Z,6.16
2022-11-16T15:04:05.164Z,6.13
2022-11-16T15:05:16.964Z,6.13
2022-11-16T15:06:20.908Z,6.12
2022-11-16T15:07:26.721Z,6.10
2022-11-16T15:09:00.896Z,6.11
2022-11-16T15:10:04.819Z,6.10
2022-11-16T15:11:20.585Z,6.08
2022-11-16T15:12:44.079Z,6.08
2022-11-16T15:13:50.372Z,6.08
2022-11-16T15:14:57.430Z,6.09
2022-11-16T15:16:16.551Z,6.09
2022-11-16T15:17:27.290Z,6.06
2022-11-16T15:18:33.992Z,6.04
2022-11-16T15:19:37.519Z,6.06
2022-11-16T15:20:50.392Z,6.05
2022-11-16T15:21:56.027Z,6.06
2022-11-16T15:23:01.244Z,6.06
2022-11-16T15:25:33.925Z,6.07
2022-11-16T15:26:41.609Z,6.13
2022-11-16T15:27:44.822Z,6.08
2022-11-16T15:28:50.265Z,6.07
2022-11-16T15:29:53.673Z,6.07
2022-11-16T15:31:04.509Z,6.07
2022-11-16T15:32:15.938Z,6.06
2022-11-16T15:33:28.804Z,6.08
2022-11-16T15:34:32.660Z,6.09
2022-11-16T15:35:38.303Z,6.08
2022-11-16T15:36:44.472Z,6.06
2022-11-16T15:38:30.840Z,6.11
2022-11-16T15:39:36.626Z,6.07
2022-11-16T15:40:42.084Z,6.07
2022-11-16T15:41:46.237Z,6.08
2022-11-16T15:42:51.492Z,6.08
2022-11-16T15:44:13.243Z,6.08
2022-11-16T15:45:25.976Z,6.03
2022-11-16T15:46:33.089Z,6.03
2022-11-16T15:47:37.499Z,6.03
2022-11-16T15:48:41.612Z,6.01
2022-11-16T15:49:49.845Z,6.01
2022-11-16T15:51:05.234Z,6.02